This is the latest recevied weather packets stored in our database for station/object SM6LNJ-13. If no packets are shown the sender has not sent any weather packets the latest 10 day(s).
| Time | Temp. | Humidity | Pressure | Rain* | Wind** | Luminosity | Snow |
|---|---|---|---|---|---|---|---|
| 1777562745 | 8.89° C | 86% | 1416.7 hPa | 0 mm | - | - | - |
| 1777562273 | 8.89° C | 86% | 1417.2 hPa | 0 mm | - | - | - |
| 1777562033 | 9.44° C | 86% | 1417.4 hPa | 0 mm | - | - | - |
| 1777552079 | 10.56° C | 83% | - | - | - | - | - |
| 1777548832 | 10.56° C | 83% | 1420.7 hPa | 0 mm | - | - | - |
| 1777548352 | 11.11° C | 83% | 1421.2 hPa | 0 mm | - | - | - |
| 1777542586 | 11.11° C | 84% | 1421.5 hPa | 0 mm | - | - | - |
| 1777542345 | 10.56° C | 84% | 1421.1 hPa | 0 mm | - | - | - |
| 1777541986 | 10.56° C | 84% | 1420.7 hPa | 0 mm | - | - | - |
| 1777539346 | 10.56° C | 85% | 1420.9 hPa | 0 mm | - | - | - |
| 1777514266 | 6.67° C | 94% | 1415.1 hPa | 0 mm | - | - | - |
| 1777491826 | 7.22° C | 90% | 1416 hPa | 0 mm | - | - | - |
| 1777481626 | 8.89° C | 84% | 1417.1 hPa | 0 mm | - | - | - |
| 1777481386 | 8.89° C | 84% | 1417 hPa | 0 mm | - | - | - |
| 1777481266 | 8.89° C | 84% | 1417 hPa | 0 mm | - | - | - |
| 1777480786 | 8.89° C | 83% | 1416.6 hPa | 0 mm | - | - | - |
| 1777480666 | 8.89° C | 83% | 1416.7 hPa | 0 mm | - | - | - |
| 1777480546 | 8.89° C | 83% | 1416.9 hPa | 0 mm | - | - | - |
| 1777480306 | 8.89° C | 83% | 1416.5 hPa | 0 mm | - | - | - |
| 1777480186 | 8.89° C | 82% | 1416.6 hPa | 0 mm | - | - | - |
| 1777480066 | 8.89° C | 82% | 1416.9 hPa | 0 mm | - | - | - |
| 1777479946 | 8.89° C | 82% | 1416.9 hPa | 0 mm | - | - | - |
| 1777479232 | 9.44° C | 80% | 1418.1 hPa | 0 mm | - | - | - |
| 1777478872 | 10° C | 79% | 1418.9 hPa | 0 mm | - | - | - |
| 1777477433 | 11.11° C | 76% | 1421.6 hPa | 0 mm | - | - | - |
* Rain latest hour (hover to see other rain measurements)
** Current wind speed in m/s (hover to see current wind gust speed)